createdAt,value
2019-03-20T00:01:59.372Z,102356.45
2019-03-20T00:04:31.520Z,102356.45
2019-03-20T00:07:03.364Z,102352.39
2019-03-20T00:09:35.167Z,102358.10
2019-03-20T00:12:07.062Z,102354.48
2019-03-20T00:14:38.840Z,102354.98
2019-03-20T00:17:10.529Z,102350.23
2019-03-20T00:19:42.184Z,102362.78
2019-03-20T00:22:13.883Z,102360.66
2019-03-20T00:24:45.670Z,102366.55
2019-03-20T00:27:17.342Z,102363.52
2019-03-20T00:29:49.033Z,102363.90
2019-03-20T00:32:20.926Z,102362.45
2019-03-20T00:35:00.503Z,102363.38
2019-03-20T00:37:26.183Z,102363.83
2019-03-20T00:39:58.977Z,102358.53
2019-03-20T00:42:30.656Z,102360.32
2019-03-20T00:45:02.330Z,102361.98
2019-03-20T00:47:34.264Z,102362.88
2019-03-20T00:50:06.628Z,102363.34
2019-03-20T00:52:38.238Z,102361.59
2019-03-20T00:55:10.073Z,102358.09
2019-03-20T00:57:41.749Z,102360.41
2019-03-20T01:00:16.057Z,102360.88
2019-03-20T01:02:47.723Z,102355.65
2019-03-20T01:05:19.405Z,102359.63
2019-03-20T01:07:51.012Z,102360.06
2019-03-20T01:10:22.642Z,102358.84
2019-03-20T01:12:54.244Z,102363.69
2019-03-20T01:15:26.002Z,102365.48
2019-03-20T01:17:57.613Z,102368.62
2019-03-20T01:20:29.293Z,102369.02
2019-03-20T01:23:01.333Z,102371.33
2019-03-20T01:25:35.087Z,102374.33
2019-03-20T01:28:06.427Z,102372.95
2019-03-20T01:30:39.251Z,102369.95
2019-03-20T01:33:11.799Z,102366.07
2019-03-20T01:35:43.525Z,102371.08
2019-03-20T01:38:15.233Z,102379.92
2019-03-20T01:40:46.840Z,102373.30
2019-03-20T01:43:18.453Z,102378.25
2019-03-20T01:45:50.128Z,102382.16
2019-03-20T01:48:21.806Z,102384.75
2019-03-20T01:50:53.519Z,102380.70
2019-03-20T01:53:25.204Z,102384.20
2019-03-20T01:55:56.878Z,102384.58
2019-03-20T01:58:28.574Z,102380.61
2019-03-20T02:01:00.265Z,102388.17
2019-03-20T02:03:32.548Z,102393.05
2019-03-20T02:06:04.528Z,102404.61
2019-03-20T02:08:36.188Z,102404.10
2019-03-20T02:11:08.857Z,102414.72
2019-03-20T02:13:41.442Z,102405.96
2019-03-20T02:16:13.121Z,102412.09
2019-03-20T02:18:44.795Z,102416.09
2019-03-20T02:21:16.474Z,102416.50
2019-03-20T02:23:48.169Z,102410.87
2019-03-20T02:26:19.863Z,102411.30
2019-03-20T02:28:51.471Z,102407.80
2019-03-20T02:31:23.161Z,102404.61
2019-03-20T02:33:54.830Z,102410.71
2019-03-20T02:36:26.503Z,102402.76
2019-03-20T02:38:58.121Z,102411.15
2019-03-20T02:41:29.757Z,102400.98
2019-03-20T02:44:01.761Z,102412.00
2019-03-20T02:46:33.612Z,102408.61
2019-03-20T02:49:05.413Z,102412.52
2019-03-20T02:51:37.283Z,102412.54
2019-03-20T02:54:08.949Z,102417.44
2019-03-20T02:56:40.603Z,102421.80
2019-03-20T02:59:12.148Z,102421.31
2019-03-20T03:01:43.634Z,102414.69
2019-03-20T03:04:15.169Z,102422.63
2019-03-20T03:06:46.740Z,102422.19
2019-03-20T03:09:18.362Z,102429.32
2019-03-20T03:11:49.925Z,102431.14
2019-03-20T03:14:21.494Z,102428.94
2019-03-20T03:16:53.197Z,102423.75
2019-03-20T03:19:24.755Z,102429.94
2019-03-20T03:21:56.340Z,102432.17
2019-03-20T03:24:27.963Z,102438.75
2019-03-20T03:26:59.514Z,102433.89
2019-03-20T03:29:31.325Z,102437.81
2019-03-20T03:32:02.819Z,102434.27
2019-03-20T03:34:34.438Z,102432.95
2019-03-20T03:37:05.990Z,102427.16
2019-03-20T03:39:37.597Z,102433.77
2019-03-20T03:42:09.185Z,102437.36
2019-03-20T03:44:40.801Z,102434.32
2019-03-20T03:47:12.430Z,102443.61
2019-03-20T03:49:44.057Z,102449.36
2019-03-20T03:52:15.626Z,102448.13
2019-03-20T03:54:47.295Z,102453.41
2019-03-20T03:57:18.851Z,102458.29
2019-03-20T03:59:50.456Z,102464.01
2019-03-20T04:02:22.081Z,102460.97
2019-03-20T04:04:53.645Z,102464.09
2019-03-20T04:07:25.422Z,102460.56
2019-03-20T04:09:57.100Z,102465.37
2019-03-20T04:12:28.795Z,102465.81
2019-03-20T04:15:00.676Z,102464.94
2019-03-20T04:17:33.554Z,102467.20
2019-03-20T04:20:05.822Z,102466.73
2019-03-20T04:22:37.529Z,102471.56
2019-03-20T04:25:09.320Z,102471.59
2019-03-20T04:27:41.141Z,102475.56
2019-03-20T04:30:12.864Z,102483.48
2019-03-20T04:32:44.614Z,102494.16
2019-03-20T04:35:16.306Z,102491.52
2019-03-20T04:37:48.090Z,102487.97
2019-03-20T04:40:19.775Z,102488.83
2019-03-20T04:42:51.448Z,102494.13
2019-03-20T04:45:23.130Z,102496.34
2019-03-20T04:47:54.800Z,102507.00
2019-03-20T04:50:26.409Z,102507.44
2019-03-20T04:52:58.016Z,102507.89
2019-03-20T04:55:29.708Z,102511.86
2019-03-20T04:58:01.720Z,102511.84
2019-03-20T05:00:33.532Z,102511.44
2019-03-20T05:03:05.438Z,102509.69
2019-03-20T05:05:37.316Z,102519.82
2019-03-20T05:08:09.089Z,102526.02
2019-03-20T05:10:40.858Z,102529.08
2019-03-20T05:13:12.538Z,102532.61
2019-03-20T05:15:44.227Z,102532.16
2019-03-20T05:18:15.882Z,102523.76
2019-03-20T05:20:47.546Z,102528.62
2019-03-20T05:23:19.141Z,102534.79
2019-03-20T05:25:50.815Z,102524.63
2019-03-20T05:28:22.484Z,102533.02
2019-03-20T05:30:54.147Z,102528.59
2019-03-20T05:33:25.821Z,102535.20
2019-03-20T05:35:57.430Z,102533.44
2019-03-20T05:38:29.102Z,102536.10
2019-03-20T05:41:00.765Z,102543.61
2019-03-20T05:43:32.629Z,102535.23
2019-03-20T05:46:04.537Z,102535.67
2019-03-20T05:48:36.205Z,102538.31
2019-03-20T05:51:10.602Z,102550.62
2019-03-20T05:53:42.289Z,102549.70
2019-03-20T05:56:13.953Z,102556.27
2019-03-20T05:58:46.642Z,102552.75
2019-03-20T06:01:18.330Z,102553.62
2019-03-20T06:03:50.006Z,102563.78
2019-03-20T06:06:21.684Z,102571.33
2019-03-20T06:08:53.453Z,102566.48
2019-03-20T06:11:25.225Z,102572.20
2019-03-20T06:13:58.330Z,102563.77
2019-03-20T06:16:30.019Z,102571.70
2019-03-20T06:19:01.817Z,102570.78
2019-03-20T06:21:33.537Z,102579.60
2019-03-20T06:24:05.391Z,102588.97
2019-03-20T06:26:37.312Z,102590.77
2019-03-20T06:29:09.008Z,102592.08
2019-03-20T06:31:40.686Z,102600.95
2019-03-20T06:34:12.328Z,102597.01
2019-03-20T06:36:44.035Z,102603.15
2019-03-20T06:39:15.745Z,102603.11
2019-03-20T06:41:48.097Z,102605.73
2019-03-20T06:44:21.745Z,102611.41
2019-03-20T06:46:53.542Z,102607.91
2019-03-20T06:49:25.252Z,102611.83
2019-03-20T06:51:56.913Z,102613.55
2019-03-20T06:54:28.609Z,102610.41
2019-03-20T06:57:00.279Z,102611.23
2019-03-20T06:59:57.053Z,102616.04
2019-03-20T07:02:28.683Z,102615.09
2019-03-20T07:05:31.964Z,102612.82
2019-03-20T07:08:03.729Z,102616.75
2019-03-20T07:11:18.172Z,102618.45
2019-03-20T07:13:50.748Z,102619.69
2019-03-20T07:16:22.539Z,102625.38
2019-03-20T07:18:54.139Z,102623.56
2019-03-20T07:21:25.811Z,102628.77
2019-03-20T07:23:57.499Z,102628.26
2019-03-20T07:26:29.205Z,102629.08
2019-03-20T07:29:00.897Z,102631.20
2019-03-20T07:31:32.643Z,102640.34
2019-03-20T07:34:04.447Z,102634.52
2019-03-20T07:36:37.486Z,102638.84
2019-03-20T07:39:10.113Z,102635.98
2019-03-20T07:41:41.789Z,102637.58
2019-03-20T07:44:13.477Z,102638.33
2019-03-20T07:46:45.155Z,102643.94
2019-03-20T07:49:16.834Z,102640.61
2019-03-20T07:51:48.505Z,102646.59
2019-03-20T07:54:20.171Z,102646.78
2019-03-20T07:56:51.801Z,102643.94
2019-03-20T07:59:23.475Z,102657.80
2019-03-20T08:01:55.144Z,102651.89
2019-03-20T08:04:26.824Z,102657.75
2019-03-20T08:06:58.496Z,102661.87
2019-03-20T08:09:30.210Z,102656.22
2019-03-20T08:12:02.043Z,102661.16
2019-03-20T08:14:33.715Z,102663.61
2019-03-20T08:17:05.434Z,102666.46
2019-03-20T08:19:37.112Z,102662.75
2019-03-20T08:22:09.060Z,102664.95
2019-03-20T08:24:41.447Z,102659.90
2019-03-20T08:27:13.195Z,102672.02
2019-03-20T08:29:44.960Z,102673.19
2019-03-20T08:32:16.701Z,102673.91
2019-03-20T08:34:48.368Z,102671.94
2019-03-20T08:37:20.030Z,102671.63
2019-03-20T08:39:51.701Z,102671.41
2019-03-20T08:42:23.380Z,102669.51
2019-03-20T08:44:55.008Z,102672.60
2019-03-20T08:47:26.607Z,102675.82
2019-03-20T08:49:58.383Z,102684.08
2019-03-20T08:52:30.055Z,102675.47
2019-03-20T08:55:01.828Z,102682.97
2019-03-20T08:57:34.618Z,102676.00
2019-03-20T09:00:07.842Z,102676.19
2019-03-20T09:02:39.611Z,102675.21
2019-03-20T09:05:11.350Z,102675.55
2019-03-20T09:07:47.203Z,102679.91
2019-03-20T09:10:20.038Z,102677.05
2019-03-20T09:12:51.970Z,102681.23
2019-03-20T09:15:31.319Z,102696.46
2019-03-20T09:18:06.081Z,102693.34
2019-03-20T09:20:39.063Z,102695.52
2019-03-20T09:23:11.915Z,102693.73
2019-03-20T09:25:45.706Z,102692.76
2019-03-20T09:28:21.833Z,102683.87
2019-03-20T09:30:54.650Z,102688.03
2019-03-20T09:33:26.679Z,102690.70
2019-03-20T09:35:58.499Z,102686.19
2019-03-20T09:38:30.127Z,102686.64
2019-03-20T09:41:02.081Z,102693.45
2019-03-20T09:43:34.006Z,102690.23
2019-03-20T09:46:05.794Z,102685.28
2019-03-20T09:48:37.475Z,102677.27
2019-03-20T09:51:09.152Z,102675.95
2019-03-20T09:53:46.838Z,102675.05
2019-03-20T09:56:19.784Z,102681.88
2019-03-20T09:58:51.501Z,102673.83
2019-03-20T10:01:23.375Z,102675.77
2019-03-20T10:03:55.066Z,102672.52
2019-03-20T10:06:26.727Z,102671.44
2019-03-20T10:08:58.423Z,102667.67
2019-03-20T10:11:30.148Z,102669.98
2019-03-20T10:14:01.992Z,102668.55
2019-03-20T10:16:34.012Z,102672.95
2019-03-20T10:19:05.735Z,102670.56
2019-03-20T10:21:37.528Z,102670.81
2019-03-20T10:24:09.208Z,102673.52
2019-03-20T10:26:40.856Z,102681.15
2019-03-20T10:29:12.588Z,102670.13
2019-03-20T10:31:44.252Z,102678.49
2019-03-20T10:34:16.035Z,102676.88
2019-03-20T10:36:48.715Z,102676.25
2019-03-20T10:39:20.768Z,102665.61
2019-03-20T10:41:52.743Z,102675.53
2019-03-20T10:44:24.420Z,102665.50
2019-03-20T10:46:56.199Z,102663.05
2019-03-20T10:49:27.887Z,102661.23
2019-03-20T10:51:59.603Z,102667.59
2019-03-20T10:54:32.927Z,102665.96
2019-03-20T10:57:05.064Z,102664.40
2019-03-20T10:59:36.751Z,102662.69
2019-03-20T11:02:08.452Z,102659.83
2019-03-20T11:04:43.862Z,102666.02
2019-03-20T11:07:47.778Z,102663.78
2019-03-20T11:11:01.065Z,102662.53
2019-03-20T11:13:55.179Z,102661.27
2019-03-20T11:16:56.216Z,102666.64
2019-03-20T11:20:12.415Z,102660.45
2019-03-20T11:23:16.810Z,102656.89
2019-03-20T11:26:36.424Z,102649.27
2019-03-20T11:28:54.947Z,102651.48
2019-03-20T11:31:26.622Z,102642.73
2019-03-20T11:33:58.408Z,102645.13
2019-03-20T11:36:30.075Z,102647.55
2019-03-20T11:39:01.756Z,102638.84
2019-03-20T11:41:35.298Z,102640.20
2019-03-20T11:44:06.983Z,102636.63
2019-03-20T11:46:38.660Z,102638.61
2019-03-20T11:49:10.269Z,102643.78
2019-03-20T11:51:41.938Z,102643.70
2019-03-20T11:54:13.618Z,102644.27
2019-03-20T11:56:45.310Z,102652.44
2019-03-20T11:59:18.015Z,102634.09
2019-03-20T12:01:49.700Z,102630.30
2019-03-20T12:04:21.335Z,102627.35
2019-03-20T12:06:53.022Z,102630.33
2019-03-20T12:09:24.707Z,102633.13
2019-03-20T12:11:56.317Z,102630.02
2019-03-20T12:14:27.994Z,102625.41
2019-03-20T12:16:59.673Z,102629.86
2019-03-20T12:19:31.556Z,102626.45
2019-03-20T12:22:04.237Z,102616.77
2019-03-20T12:24:35.844Z,102612.06
2019-03-20T12:27:14.993Z,102618.53
2019-03-20T12:29:40.956Z,102608.60
2019-03-20T12:32:12.585Z,102603.05
2019-03-20T12:34:44.195Z,102601.12
2019-03-20T12:37:16.893Z,102608.80
2019-03-20T12:39:53.034Z,102599.93
2019-03-20T12:42:21.928Z,102604.43
2019-03-20T12:44:53.690Z,102604.65
2019-03-20T12:47:25.359Z,102615.43
2019-03-20T12:49:57.077Z,102601.01
2019-03-20T12:52:28.840Z,102597.14
2019-03-20T12:55:00.516Z,102589.60
2019-03-20T12:57:32.508Z,102591.39
2019-03-20T13:00:05.096Z,102610.61
2019-03-20T13:02:36.933Z,102604.25
2019-03-20T13:05:09.331Z,102594.27
2019-03-20T13:07:41.001Z,102591.73
2019-03-20T13:10:16.922Z,102580.72
2019-03-20T13:12:48.642Z,102572.18
2019-03-20T13:15:21.582Z,102581.17
2019-03-20T13:17:53.293Z,102586.55
2019-03-20T13:20:24.984Z,102578.91
2019-03-20T13:23:02.234Z,102573.67
2019-03-20T13:25:35.247Z,102564.23
2019-03-20T13:28:06.886Z,102563.55
2019-03-20T13:30:44.463Z,102585.09
2019-03-20T13:33:25.292Z,102569.92
2019-03-20T13:35:49.447Z,102558.69
2019-03-20T13:38:21.135Z,102559.09
2019-03-20T13:40:52.815Z,102555.30
2019-03-20T13:43:24.496Z,102549.66
2019-03-20T13:45:56.095Z,102548.50
2019-03-20T13:49:01.744Z,102553.89
2019-03-20T13:52:13.465Z,102559.05
2019-03-20T13:55:10.908Z,102543.17
2019-03-20T13:58:11.849Z,102535.47
2019-03-20T14:00:50.866Z,102538.91
2019-03-20T14:03:24.428Z,102545.47
2019-03-20T14:05:57.554Z,102533.91
2019-03-20T14:08:29.481Z,102535.34
2019-03-20T14:11:01.215Z,102535.02
2019-03-20T14:13:33.173Z,102538.33
2019-03-20T14:16:04.797Z,102538.97
2019-03-20T14:18:36.440Z,102540.08
2019-03-20T14:21:08.269Z,102544.02
2019-03-20T14:23:39.837Z,102532.53
2019-03-20T14:26:11.417Z,102531.98
2019-03-20T14:28:43.072Z,102517.57
2019-03-20T14:31:14.702Z,102517.46
2019-03-20T14:33:46.333Z,102520.50
2019-03-20T14:36:17.905Z,102517.56
2019-03-20T14:38:50.896Z,102512.31
2019-03-20T14:41:22.884Z,102516.04
2019-03-20T14:43:54.515Z,102508.27
2019-03-20T14:46:26.061Z,102523.20
2019-03-20T14:48:57.702Z,102526.77
2019-03-20T14:51:29.564Z,102510.72
2019-03-20T14:54:01.181Z,102512.00
2019-03-20T14:56:32.855Z,102516.12
2019-03-20T14:59:04.557Z,102527.08
2019-03-20T15:01:36.160Z,102534.64
2019-03-20T15:04:09.283Z,102526.43
2019-03-20T15:06:41.638Z,102532.58
2019-03-20T15:09:13.305Z,102533.98
2019-03-20T15:11:44.967Z,102525.43
2019-03-20T15:14:16.643Z,102535.18
2019-03-20T15:16:48.328Z,102529.53
2019-03-20T15:19:19.998Z,102533.62
2019-03-20T15:21:51.679Z,102538.44
2019-03-20T15:24:23.279Z,102529.11
2019-03-20T15:26:55.463Z,102537.75
2019-03-20T15:29:27.133Z,102541.70
2019-03-20T15:31:58.807Z,102535.03
2019-03-20T15:34:30.496Z,102533.94
2019-03-20T15:37:03.214Z,102543.50
2019-03-20T15:39:35.212Z,102532.83
2019-03-20T15:42:06.893Z,102543.73
2019-03-20T15:44:38.754Z,102528.27
2019-03-20T15:47:10.441Z,102528.09
2019-03-20T15:49:42.154Z,102524.63
2019-03-20T15:52:13.916Z,102522.13
2019-03-20T15:54:45.607Z,102522.13
2019-03-20T15:57:17.317Z,102513.33
2019-03-20T15:59:49.196Z,102497.86
2019-03-20T16:02:20.977Z,102493.85
2019-03-20T16:04:52.778Z,102481.57
2019-03-20T16:07:24.508Z,102472.66
2019-03-20T16:09:56.279Z,102472.66
2019-03-20T16:12:28.063Z,102472.95
2019-03-20T16:14:59.891Z,102470.22
2019-03-20T16:17:31.662Z,102464.00
2019-03-20T16:20:05.548Z,102457.72
2019-03-20T16:22:38.479Z,102463.02
2019-03-20T16:25:10.724Z,102475.94
2019-03-20T16:27:42.546Z,102481.80
2019-03-20T16:30:18.960Z,102479.78
2019-03-20T16:32:50.802Z,102472.60
2019-03-20T16:35:22.718Z,102463.38
2019-03-20T16:37:56.064Z,102467.66
2019-03-20T16:40:28.287Z,102475.00
2019-03-20T16:43:00.576Z,102484.89
2019-03-20T16:45:34.134Z,102496.77
2019-03-20T16:48:06.142Z,102500.91
2019-03-20T16:50:37.824Z,102497.42
2019-03-20T16:53:09.421Z,102507.56
2019-03-20T16:55:41.104Z,102512.96
2019-03-20T16:58:12.874Z,102516.51
2019-03-20T17:00:44.556Z,102524.66
2019-03-20T17:03:16.260Z,102523.55
2019-03-20T17:05:47.897Z,102526.23
2019-03-20T17:08:20.608Z,102530.64
2019-03-20T17:10:52.302Z,102541.70
2019-03-20T17:13:23.987Z,102543.36
2019-03-20T17:15:55.676Z,102540.56
2019-03-20T17:18:27.357Z,102542.77
2019-03-20T17:20:59.047Z,102546.55
2019-03-20T17:23:30.742Z,102549.45
2019-03-20T17:26:02.611Z,102557.52
2019-03-20T17:28:34.622Z,102558.45
2019-03-20T17:31:06.727Z,102564.69
2019-03-20T17:33:38.418Z,102561.38
2019-03-20T17:36:10.105Z,102567.96
2019-03-20T17:38:41.797Z,102571.86
2019-03-20T17:41:13.489Z,102572.11
2019-03-20T17:43:45.169Z,102576.64
2019-03-20T17:46:17.499Z,102587.09
2019-03-20T17:48:49.254Z,102579.03
2019-03-20T17:51:20.933Z,102576.56
2019-03-20T17:53:53.660Z,102573.61
2019-03-20T17:56:25.359Z,102568.77
2019-03-20T17:58:56.981Z,102565.63
2019-03-20T18:01:29.021Z,102565.46
2019-03-20T18:04:00.754Z,102560.38
2019-03-20T18:06:32.950Z,102555.45
2019-03-20T18:09:05.165Z,102549.82
2019-03-20T18:11:36.874Z,102558.28
2019-03-20T18:14:08.627Z,102551.69
2019-03-20T18:16:40.514Z,102551.04
2019-03-20T18:19:12.527Z,102550.06
2019-03-20T18:21:44.283Z,102558.49
2019-03-20T18:24:16.361Z,102569.31
2019-03-20T18:26:48.106Z,102561.05
2019-03-20T18:29:21.630Z,102564.20
2019-03-20T18:31:53.627Z,102562.67
2019-03-20T18:34:25.629Z,102559.63
2019-03-20T18:37:03.819Z,102563.53
2019-03-20T18:39:35.989Z,102566.22
2019-03-20T18:42:09.603Z,102568.45
2019-03-20T18:44:41.794Z,102558.11
2019-03-20T18:47:13.991Z,102565.28
2019-03-20T18:49:46.018Z,102558.81
2019-03-20T18:52:17.719Z,102559.05
2019-03-20T18:54:49.475Z,102561.52
2019-03-20T18:57:21.830Z,102569.11
2019-03-20T18:59:53.845Z,102567.97
2019-03-20T19:02:25.781Z,102568.91
2019-03-20T19:04:57.464Z,102562.72
2019-03-20T19:07:29.718Z,102563.74
2019-03-20T19:10:04.140Z,102565.54
2019-03-20T19:12:37.104Z,102565.95
2019-03-20T19:15:12.336Z,102562.40
2019-03-20T19:17:44.802Z,102565.36
2019-03-20T19:20:16.608Z,102565.77
2019-03-20T19:22:48.585Z,102555.87
2019-03-20T19:25:20.727Z,102561.84
2019-03-20T19:27:53.003Z,102557.27
2019-03-20T19:30:24.829Z,102558.83
2019-03-20T19:32:56.500Z,102566.02
2019-03-20T19:35:28.317Z,102563.80
2019-03-20T19:38:00.626Z,102560.84
2019-03-20T19:40:32.739Z,102555.06
2019-03-20T19:43:05.177Z,102552.91
2019-03-20T19:45:37.277Z,102559.37
2019-03-20T19:48:09.080Z,102552.09
2019-03-20T19:50:40.814Z,102552.22
2019-03-20T19:53:13.603Z,102547.66
2019-03-20T19:55:45.453Z,102554.45
2019-03-20T19:58:17.107Z,102550.15
2019-03-20T20:00:49.137Z,102551.77
2019-03-20T20:03:20.838Z,102554.31
2019-03-20T20:05:52.675Z,102551.81
2019-03-20T20:08:24.620Z,102555.19
2019-03-20T20:10:56.494Z,102564.28
2019-03-20T20:13:32.248Z,102560.29
2019-03-20T20:16:04.170Z,102559.35
2019-03-20T20:18:35.962Z,102562.45
2019-03-20T20:21:08.020Z,102565.47
2019-03-20T20:23:39.793Z,102563.93
2019-03-20T20:26:12.689Z,102569.56
2019-03-20T20:28:45.559Z,102565.13
2019-03-20T20:31:17.653Z,102561.34
2019-03-20T20:33:49.442Z,102567.12
2019-03-20T20:36:21.594Z,102573.44
2019-03-20T20:38:53.414Z,102564.56
2019-03-20T20:41:25.102Z,102567.53
2019-03-20T20:43:56.799Z,102573.39
2019-03-20T20:46:28.519Z,102572.58
2019-03-20T20:49:00.203Z,102576.94
2019-03-20T20:51:32.049Z,102584.47
2019-03-20T20:54:03.847Z,102592.74
2019-03-20T20:56:35.534Z,102595.23
2019-03-20T20:59:07.249Z,102593.23
2019-03-20T21:01:39.018Z,102597.79
2019-03-20T21:04:10.686Z,102602.23
2019-03-20T21:06:42.362Z,102608.67
2019-03-20T21:09:14.040Z,102607.48
2019-03-20T21:11:45.700Z,102609.36
2019-03-20T21:14:17.394Z,102605.33
2019-03-20T21:16:49.653Z,102602.35
2019-03-20T21:19:40.774Z,102599.38
2019-03-20T21:22:42.816Z,102605.86
2019-03-20T21:25:19.244Z,102616.61
2019-03-20T21:28:33.219Z,102618.97
2019-03-20T21:31:20.795Z,102617.34
2019-03-20T21:34:31.784Z,102608.06
2019-03-20T21:37:39.063Z,102601.75
2019-03-20T21:40:12.487Z,102612.82
2019-03-20T21:43:19.720Z,102610.13
2019-03-20T21:46:36.499Z,102614.61
2019-03-20T21:49:08.715Z,102609.64
2019-03-20T21:51:40.927Z,102599.30
2019-03-20T21:55:01.556Z,102597.35
2019-03-20T21:57:47.056Z,102599.51
2019-03-20T22:00:50.735Z,102608.67
2019-03-20T22:03:22.969Z,102611.55
2019-03-20T22:06:44.448Z,102619.91
2019-03-20T22:09:47.664Z,102623.45
2019-03-20T22:12:29.149Z,102622.34
2019-03-20T22:15:26.147Z,102614.82
2019-03-20T22:18:49.880Z,102598.69
2019-03-20T22:21:29.910Z,102592.54
2019-03-20T22:24:18.023Z,102590.75
2019-03-20T22:27:39.072Z,102599.33
2019-03-20T22:30:11.283Z,102599.17
2019-03-20T22:33:19.599Z,102594.08
2019-03-20T22:36:01.747Z,102600.18
2019-03-20T22:39:29.807Z,102590.65
2019-03-20T22:42:32.497Z,102585.77
2019-03-20T22:45:22.729Z,102577.62
2019-03-20T22:48:38.242Z,102582.06
2019-03-20T22:51:42.643Z,102585.41
2019-03-20T22:54:58.377Z,102589.55
2019-03-20T22:57:59.573Z,102582.86
2019-03-20T23:00:33.456Z,102587.52
2019-03-20T23:03:13.806Z,102586.29
2019-03-20T23:05:46.007Z,102585.80
2019-03-20T23:08:18.222Z,102586.36
2019-03-20T23:10:51.408Z,102585.11
2019-03-20T23:13:23.616Z,102574.12
2019-03-20T23:15:55.809Z,102575.34
2019-03-20T23:18:28.019Z,102578.11
2019-03-20T23:21:00.212Z,102579.50
2019-03-20T23:23:33.440Z,102580.17
2019-03-20T23:26:05.647Z,102578.30
2019-03-20T23:28:38.077Z,102572.94
2019-03-20T23:31:10.303Z,102567.97
2019-03-20T23:33:42.490Z,102572.94
2019-03-20T23:36:14.693Z,102578.56
2019-03-20T23:38:46.923Z,102579.40
2019-03-20T23:41:19.124Z,102585.14
2019-03-20T23:43:53.138Z,102587.42
2019-03-20T23:46:25.249Z,102588.48
2019-03-20T23:49:04.142Z,102587.30
2019-03-20T23:51:36.481Z,102584.53
2019-03-20T23:54:08.827Z,102589.62
2019-03-20T23:56:41.127Z,102584.48
2019-03-20T23:59:13.332Z,102579.19
